Time;durP1;ratioP1;P1;durP2;ratioP2;P2;SDS_P1;SDS_P2;PMS_P1;PMS_P2;Temp;Humidity;BMP_temperature;BMP_pressure;BME280_temperature;BME280_humidity;BME280_pressure;Samples;Min_cycle;Max_cycle;Signal;HPM_P1;HPM_P2
2023/07/05 00:01:18;;;;;;;8.67;6.37;;;;;;;;;;5031073;28;20210;-77
2023/07/05 00:03:45;;;;;;;6.33;5.80;;;;;;;;;;5031064;28;20288;-78
2023/07/05 00:06:12;;;;;;;6.40;5.80;;;;;;;;;;5029763;28;20206;-78
2023/07/05 00:08:41;;;;;;;6.57;5.97;;;;;;;;;;5010463;28;20760;-77
2023/07/05 00:11:10;;;;;;;6.33;5.80;;;;;;;;;;5029792;28;20284;-77
2023/07/05 00:13:37;;;;;;;6.27;5.67;;;;;;;;;;5031041;28;20210;-78
2023/07/05 00:16:04;;;;;;;13.07;6.53;;;;;;;;;;5030871;28;20231;-78
2023/07/05 00:18:31;;;;;;;8.37;6.73;;;;;;;;;;5030232;28;20230;-77
2023/07/05 00:21:01;;;;;;;6.37;5.83;;;;;;;;;;5030831;28;20202;-77
2023/07/05 00:23:28;;;;;;;6.90;6.07;;;;;;;;;;5029477;28;20206;-77
2023/07/05 00:25:57;;;;;;;6.03;5.40;;;;;;;;;;4993928;28;20277;-78
2023/07/05 00:28:24;;;;;;;7.23;6.47;;;;;;;;;;5023102;28;20651;-77
2023/07/05 00:30:51;;;;;;;6.17;5.60;;;;;;;;;;5029725;28;20258;-77
2023/07/05 00:33:18;;;;;;;6.83;6.13;;;;;;;;;;5030740;28;20202;-77
2023/07/05 00:35:49;;;;;;;7.83;6.20;;;;;;;;;;5030386;28;20203;-77
2023/07/05 00:38:16;;;;;;;7.10;6.33;;;;;;;;;;5030149;28;20599;-78
2023/07/05 00:40:43;;;;;;;6.97;6.27;;;;;;;;;;5030669;28;20202;-78
2023/07/05 00:43:13;;;;;;;6.87;6.27;;;;;;;;;;5030496;28;20203;-77
2023/07/05 00:45:56;;;;;;;6.53;5.53;;;;;;;;;;5030888;28;20205;-77
2023/07/05 00:48:27;;;;;;;6.47;5.80;;;;;;;;;;5030267;28;20199;-77
2023/07/05 00:50:56;;;;;;;6.70;6.10;;;;;;;;;;5029445;28;20214;-77
2023/07/05 00:53:24;;;;;;;7.67;6.87;;;;;;;;;;5030023;28;20214;-77
2023/07/05 00:56:01;;;;;;;6.87;6.27;;;;;;;;;;5030015;28;20570;-78
2023/07/05 00:58:30;;;;;;;10.63;5.97;;;;;;;;;;5032809;28;20217;-77
2023/07/05 01:00:57;;;;;;;7.13;6.43;;;;;;;;;;5033094;28;20209;-77
2023/07/05 01:03:26;;;;;;;7.17;6.47;;;;;;;;;;5034108;28;20198;-77
2023/07/05 01:05:57;;;;;;;7.20;6.50;;;;;;;;;;5033997;28;20207;-77
2023/07/05 01:08:25;;;;;;;7.90;6.40;;;;;;;;;;5033026;28;20212;-78
2023/07/05 01:10:58;;;;;;;7.47;6.33;;;;;;;;;;5016663;28;20202;-77
2023/07/05 01:13:30;;;;;;;10.20;6.97;;;;;;;;;;5034463;28;20305;-77
2023/07/05 01:16:03;;;;;;;7.57;6.53;;;;;;;;;;5034332;28;20608;-78
2023/07/05 01:18:37;;;;;;;7.43;6.73;;;;;;;;;;5032662;28;20214;-78
2023/07/05 01:21:08;;;;;;;7.13;6.43;;;;;;;;;;5034347;28;20213;-77
2023/07/05 01:24:00;;;;;;;7.50;6.73;;;;;;;;;;5032819;28;20260;-77
2023/07/05 01:26:47;;;;;;;7.10;6.37;;;;;;;;;;5033504;28;20692;-77
2023/07/05 01:29:29;;;;;;;8.43;7.23;;;;;;;;;;5016379;28;20206;-77
2023/07/05 01:32:03;;;;;;;7.17;6.47;;;;;;;;;;5032502;28;20637;-77
2023/07/05 01:34:38;;;;;;;7.20;6.50;;;;;;;;;;5029146;28;20207;-77
2023/07/05 01:37:06;;;;;;;7.13;6.43;;;;;;;;;;5030457;28;20194;-77
2023/07/05 01:39:34;;;;;;;9.27;7.00;;;;;;;;;;5032666;28;20234;-77
2023/07/05 01:42:01;;;;;;;7.17;6.43;;;;;;;;;;5033272;28;20206;-77
2023/07/05 01:44:28;;;;;;;9.33;6.20;;;;;;;;;;5033811;28;20203;-77
2023/07/05 01:47:01;;;;;;;7.50;6.70;;;;;;;;;;5032072;28;20211;-78
2023/07/05 01:49:42;;;;;;;8.37;6.30;;;;;;;;;;5033322;28;20620;-77
2023/07/05 01:52:15;;;;;;;8.87;7.73;;;;;;;;;;5032700;28;20213;-78
2023/07/05 01:54:46;;;;;;;7.70;6.70;;;;;;;;;;5032148;28;20199;-78
2023/07/05 01:57:19;;;;;;;8.13;7.33;;;;;;;;;;5032249;28;20225;-78
2023/07/05 01:59:48;;;;;;;8.80;7.93;;;;;;;;;;5033366;28;20242;-78
2023/07/05 02:02:17;;;;;;;8.63;6.33;;;;;;;;;;5032281;28;20206;-78
2023/07/05 02:04:45;;;;;;;7.13;6.40;;;;;;;;;;5032921;28;20202;-78
2023/07/05 02:07:12;;;;;;;8.20;6.20;;;;;;;;;;5033056;28;20699;-78
2023/07/05 02:09:42;;;;;;;7.87;5.93;;;;;;;;;;5033119;28;20579;-78
2023/07/05 02:12:10;;;;;;;7.83;6.57;;;;;;;;;;5025790;28;20203;-78
2023/07/05 02:14:37;;;;;;;7.03;6.40;;;;;;;;;;5032756;28;20198;-78
2023/07/05 02:17:05;;;;;;;7.27;6.57;;;;;;;;;;5032436;28;20237;-78
2023/07/05 02:19:34;;;;;;;7.33;6.40;;;;;;;;;;5024502;28;20227;-77
2023/07/05 02:22:02;;;;;;;7.93;7.13;;;;;;;;;;5013187;28;20211;-77
2023/07/05 02:24:29;;;;;;;8.33;6.73;;;;;;;;;;5006638;28;20213;-78
2023/07/05 02:26:57;;;;;;;8.37;7.23;;;;;;;;;;5031644;28;20214;-77
2023/07/05 02:29:24;;;;;;;9.43;7.43;;;;;;;;;;5032853;28;20260;-77
2023/07/05 02:31:51;;;;;;;7.87;6.63;;;;;;;;;;5016287;28;20682;-77
2023/07/05 02:34:19;;;;;;;7.63;6.90;;;;;;;;;;5031999;28;20199;-78
2023/07/05 02:36:48;;;;;;;6.90;6.30;;;;;;;;;;5032958;28;20273;-78
2023/07/05 02:39:15;;;;;;;8.43;5.87;;;;;;;;;;5002158;28;20206;-77
2023/07/05 02:41:42;;;;;;;10.37;5.80;;;;;;;;;;5031540;28;20214;-78
2023/07/05 02:44:09;;;;;;;6.87;6.03;;;;;;;;;;5031226;28;21179;-78
2023/07/05 02:46:36;;;;;;;7.27;6.60;;;;;;;;;;5031020;28;20871;-78
2023/07/05 02:49:04;;;;;;;7.87;6.90;;;;;;;;;;5031125;28;20253;-76
2023/07/05 02:51:32;;;;;;;8.70;7.83;;;;;;;;;;5032561;28;20205;-75
2023/07/05 02:54:00;;;;;;;8.37;7.10;;;;;;;;;;5032077;28;20209;-76
2023/07/05 02:56:27;;;;;;;7.30;6.63;;;;;;;;;;5015027;28;20210;-76
2023/07/05 02:58:55;;;;;;;8.57;7.23;;;;;;;;;;5030724;28;20286;-76
2023/07/05 03:01:21;;;;;;;8.27;7.47;;;;;;;;;;5031623;28;20659;-75
2023/07/05 03:03:48;;;;;;;8.67;7.30;;;;;;;;;;5032628;28;20211;-75
2023/07/05 03:06:15;;;;;;;8.17;6.70;;;;;;;;;;5032083;28;20210;-76
2023/07/05 03:08:42;;;;;;;10.00;7.50;;;;;;;;;;5031808;28;20202;-75
2023/07/05 03:11:10;;;;;;;7.37;6.67;;;;;;;;;;5031657;28;20587;-76
2023/07/05 03:13:37;;;;;;;7.87;7.17;;;;;;;;;;5031507;28;20681;-75
2023/07/05 03:16:05;;;;;;;7.03;6.43;;;;;;;;;;5031877;28;20317;-75
2023/07/05 03:18:32;;;;;;;8.47;7.03;;;;;;;;;;5031213;28;20222;-75
2023/07/05 03:20:59;;;;;;;9.17;7.80;;;;;;;;;;5031354;28;20287;-76
2023/07/05 03:23:25;;;;;;;9.67;6.90;;;;;;;;;;5031587;28;20207;-76
2023/07/05 03:25:56;;;;;;;10.50;7.30;;;;;;;;;;5031398;28;20214;-76
2023/07/05 03:28:25;;;;;;;7.90;7.03;;;;;;;;;;5031569;28;20731;-76
2023/07/05 03:31:00;;;;;;;7.93;6.97;;;;;;;;;;5031676;28;20277;-77
2023/07/05 03:33:27;;;;;;;9.30;8.43;;;;;;;;;;5031166;28;20206;-76
2023/07/05 03:35:56;;;;;;;8.40;7.60;;;;;;;;;;5031911;28;20206;-76
2023/07/05 03:38:24;;;;;;;8.07;7.27;;;;;;;;;;5031504;28;20207;-77
2023/07/05 03:40:57;;;;;;;8.37;6.37;;;;;;;;;;5031555;28;20661;-79
2023/07/05 03:43:28;;;;;;;8.70;6.57;;;;;;;;;;5023963;28;20198;-78
2023/07/05 03:45:55;;;;;;;7.73;6.83;;;;;;;;;;5031627;28;20214;-79
2023/07/05 03:48:22;;;;;;;10.27;7.20;;;;;;;;;;5031423;28;20190;-79
2023/07/05 03:50:49;;;;;;;8.40;7.07;;;;;;;;;;5031365;28;20205;-79
2023/07/05 03:53:16;;;;;;;11.47;7.80;;;;;;;;;;5031215;28;20199;-79
2023/07/05 03:55:42;;;;;;;10.40;7.40;;;;;;;;;;5031160;28;20210;-79
2023/07/05 03:58:09;;;;;;;9.33;7.87;;;;;;;;;;5031184;28;20268;-80
2023/07/05 04:00:37;;;;;;;10.77;8.70;;;;;;;;;;5030896;28;20230;-79
2023/07/05 04:03:04;;;;;;;10.20;8.37;;;;;;;;;;5030749;28;20219;-79
2023/07/05 04:05:31;;;;;;;8.63;7.83;;;;;;;;;;5031391;28;20206;-79
2023/07/05 04:07:58;;;;;;;8.27;7.33;;;;;;;;;;5028733;28;20645;-79
2023/07/05 04:10:24;;;;;;;8.70;7.23;;;;;;;;;;5028559;28;20209;-79
2023/07/05 04:12:51;;;;;;;10.73;7.70;;;;;;;;;;5024490;28;20207;-79
2023/07/05 04:15:18;;;;;;;8.93;8.03;;;;;;;;;;5030707;28;20237;-79
2023/07/05 04:17:46;;;;;;;11.90;7.87;;;;;;;;;;5030371;28;20214;-79
2023/07/05 04:20:13;;;;;;;8.23;7.43;;;;;;;;;;5030615;28;20243;-79
2023/07/05 04:22:41;;;;;;;9.67;8.13;;;;;;;;;;5030276;28;20195;-79
2023/07/05 04:25:09;;;;;;;8.57;7.67;;;;;;;;;;5030801;28;20199;-79
2023/07/05 04:27:37;;;;;;;9.00;8.10;;;;;;;;;;5029561;28;20207;-79
2023/07/05 04:30:05;;;;;;;8.63;7.80;;;;;;;;;;5028992;28;20213;-79
2023/07/05 04:32:32;;;;;;;10.27;8.33;;;;;;;;;;5008323;28;20216;-79
2023/07/05 04:35:00;;;;;;;10.93;7.80;;;;;;;;;;5024178;28;20213;-79
2023/07/05 04:37:27;;;;;;;7.07;6.47;;;;;;;;;;5031061;28;20202;-79
2023/07/05 04:39:54;;;;;;;8.23;7.40;;;;;;;;;;5030836;28;20261;-79
2023/07/05 04:42:21;;;;;;;8.33;7.53;;;;;;;;;;5029864;28;20203;-78
2023/07/05 04:44:48;;;;;;;11.63;7.37;;;;;;;;;;5030287;28;20226;-79
2023/07/05 04:47:16;;;;;;;8.23;7.53;;;;;;;;;;5030114;28;20207;-79
2023/07/05 04:49:44;;;;;;;8.37;7.57;;;;;;;;;;5029614;28;20693;-79
2023/07/05 04:52:12;;;;;;;8.50;7.70;;;;;;;;;;5030360;28;20206;-79
2023/07/05 04:54:39;;;;;;;8.43;7.67;;;;;;;;;;5030390;28;20233;-79
2023/07/05 04:57:06;;;;;;;9.10;8.20;;;;;;;;;;5030466;28;20206;-79
2023/07/05 04:59:33;;;;;;;10.00;7.87;;;;;;;;;;5030579;28;20199;-79
2023/07/05 05:02:04;;;;;;;9.07;8.30;;;;;;;;;;5030270;28;20238;-79
2023/07/05 05:04:31;;;;;;;8.73;7.83;;;;;;;;;;5030496;28;20218;-79
2023/07/05 05:06:58;;;;;;;8.83;7.60;;;;;;;;;;5030670;28;20210;-79
2023/07/05 05:09:26;;;;;;;8.83;7.97;;;;;;;;;;5030364;28;20203;-79
2023/07/05 05:11:53;;;;;;;8.60;7.70;;;;;;;;;;5030146;28;20594;-79
2023/07/05 05:14:19;;;;;;;9.83;8.43;;;;;;;;;;5030329;28;20199;-79
2023/07/05 05:16:46;;;;;;;12.00;9.13;;;;;;;;;;5030066;28;20234;-79
2023/07/05 05:19:13;;;;;;;10.97;8.53;;;;;;;;;;5029973;28;20211;-79
2023/07/05 05:21:40;;;;;;;10.90;8.20;;;;;;;;;;5030198;28;20230;-79
2023/07/05 05:24:07;;;;;;;10.60;9.60;;;;;;;;;;5030297;28;20265;-79
2023/07/05 05:26:35;;;;;;;10.53;8.70;;;;;;;;;;5030451;28;20207;-78
2023/07/05 05:29:02;;;;;;;13.63;8.30;;;;;;;;;;5029932;28;20206;-79
2023/07/05 05:31:28;;;;;;;9.57;8.73;;;;;;;;;;5030080;28;20593;-79
2023/07/05 05:33:55;;;;;;;9.00;8.27;;;;;;;;;;5029789;28;20206;-79
2023/07/05 05:36:22;;;;;;;10.60;8.93;;;;;;;;;;5030762;28;20203;-79
2023/07/05 05:38:49;;;;;;;9.90;8.93;;;;;;;;;;5030000;28;20199;-79
2023/07/05 05:41:16;;;;;;;9.93;8.93;;;;;;;;;;5029885;28;20244;-79
2023/07/05 05:43:45;;;;;;;10.40;8.67;;;;;;;;;;5033182;28;20198;-80
2023/07/05 05:46:12;;;;;;;9.43;7.80;;;;;;;;;;5033655;28;20206;-79
2023/07/05 05:48:39;;;;;;;9.00;8.10;;;;;;;;;;5033511;28;20265;-79
2023/07/05 05:51:05;;;;;;;10.70;8.70;;;;;;;;;;5033193;28;20639;-79
2023/07/05 05:53:32;;;;;;;9.70;8.37;;;;;;;;;;5033472;28;20281;-79
2023/07/05 05:55:59;;;;;;;9.40;8.33;;;;;;;;;;5033797;28;20207;-81
2023/07/05 05:58:26;;;;;;;9.50;8.27;;;;;;;;;;5032951;28;20206;-81
2023/07/05 06:00:55;;;;;;;8.83;7.27;;;;;;;;;;5033478;28;20746;-81
2023/07/05 06:03:22;;;;;;;9.07;8.10;;;;;;;;;;5020518;28;20222;-81
2023/07/05 06:05:50;;;;;;;7.83;7.13;;;;;;;;;;5033329;28;20210;-81
2023/07/05 06:08:17;;;;;;;11.33;8.40;;;;;;;;;;5033239;28;20280;-81
2023/07/05 06:10:45;;;;;;;9.83;7.70;;;;;;;;;;5033054;28;20681;-81
2023/07/05 06:13:12;;;;;;;8.37;7.57;;;;;;;;;;5033291;28;20241;-81
2023/07/05 06:15:39;;;;;;;13.70;8.97;;;;;;;;;;5033147;28;20237;-81
2023/07/05 06:18:07;;;;;;;9.40;8.20;;;;;;;;;;5033300;28;20217;-82
2023/07/05 06:20:34;;;;;;;9.73;7.87;;;;;;;;;;5032812;28;20226;-81
2023/07/05 06:23:03;;;;;;;8.53;7.73;;;;;;;;;;5032785;28;20290;-81
2023/07/05 06:25:29;;;;;;;8.60;7.70;;;;;;;;;;5032781;28;20267;-81
2023/07/05 06:27:56;;;;;;;9.50;8.53;;;;;;;;;;5032570;28;20595;-81
2023/07/05 06:30:23;;;;;;;8.33;7.30;;;;;;;;;;5033172;28;20211;-81
2023/07/05 06:32:50;;;;;;;7.60;6.90;;;;;;;;;;5032585;28;20218;-81
2023/07/05 06:35:18;;;;;;;10.50;7.83;;;;;;;;;;5032786;28;20207;-81
2023/07/05 06:37:45;;;;;;;8.23;7.43;;;;;;;;;;5032465;28;20202;-81
2023/07/05 06:40:12;;;;;;;9.23;8.33;;;;;;;;;;5032588;28;21013;-81
2023/07/05 06:42:39;;;;;;;9.67;7.63;;;;;;;;;;5032207;28;20206;-79
2023/07/05 06:45:08;;;;;;;10.77;7.27;;;;;;;;;;5032605;28;20298;-79
2023/07/05 06:47:35;;;;;;;7.63;6.90;;;;;;;;;;5032588;28;20218;-79
2023/07/05 06:50:01;;;;;;;9.13;8.07;;;;;;;;;;5032483;28;20209;-79
2023/07/05 06:52:30;;;;;;;10.18;7.93;;;;;;;;;;5032084;28;20677;-80
2023/07/05 06:54:56;;;;;;;8.45;7.65;;;;;;;;;;5031616;28;20253;-80
2023/07/05 06:57:23;;;;;;;8.73;7.82;;;;;;;;;;5032647;28;20199;-79
2023/07/05 06:59:50;;;;;;;9.23;7.10;;;;;;;;;;5032042;28;20210;-80
2023/07/05 07:02:17;;;;;;;9.73;7.43;;;;;;;;;;5031809;28;20226;-79
2023/07/05 07:04:44;;;;;;;8.45;7.65;;;;;;;;;;5031952;28;20194;-79
2023/07/05 07:07:11;;;;;;;8.63;6.97;;;;;;;;;;5031763;28;20214;-79
2023/07/05 07:09:40;;;;;;;7.47;6.20;;;;;;;;;;5031873;28;20255;-80
2023/07/05 07:12:08;;;;;;;6.97;6.45;;;;;;;;;;5031887;28;20246;-79
2023/07/05 07:14:35;;;;;;;6.95;6.38;;;;;;;;;;5032011;28;20202;-79
2023/07/05 07:17:02;;;;;;;7.97;7.25;;;;;;;;;;5032263;28;20241;-80
2023/07/05 07:19:29;;;;;;;6.70;6.20;;;;;;;;;;5032227;28;20210;-80
2023/07/05 07:21:55;;;;;;;7.45;6.75;;;;;;;;;;5031926;28;20229;-80
2023/07/05 07:24:22;;;;;;;6.60;5.95;;;;;;;;;;5031698;28;20234;-80
2023/07/05 07:26:51;;;;;;;6.95;6.35;;;;;;;;;;5031696;28;20696;-79
2023/07/05 07:29:18;;;;;;;9.63;7.38;;;;;;;;;;5031444;28;20203;-79
2023/07/05 07:31:44;;;;;;;9.38;8.48;;;;;;;;;;5032065;28;20206;-80
2023/07/05 07:34:11;;;;;;;19.50;14.75;;;;;;;;;;5031302;28;20206;-80
2023/07/05 07:36:38;;;;;;;14.43;9.57;;;;;;;;;;5031339;28;20218;-80
2023/07/05 07:39:05;;;;;;;7.80;7.07;;;;;;;;;;5031455;28;20203;-80
2023/07/05 07:41:34;;;;;;;17.67;13.13;;;;;;;;;;5031401;28;20234;-79
2023/07/05 07:44:06;;;;;;;8.00;7.22;;;;;;;;;;5031063;28;20210;-80
2023/07/05 07:46:34;;;;;;;8.57;7.68;;;;;;;;;;5031319;28;20203;-80
2023/07/05 07:49:02;;;;;;;8.55;7.57;;;;;;;;;;5031239;28;20260;-80
2023/07/05 07:51:30;;;;;;;8.02;7.43;;;;;;;;;;5031222;28;20206;-80
2023/07/05 07:53:57;;;;;;;7.85;6.47;;;;;;;;;;5031596;28;20209;-80
2023/07/05 07:56:25;;;;;;;7.53;6.90;;;;;;;;;;5031457;28;20646;-80
2023/07/05 07:58:54;;;;;;;7.70;7.05;;;;;;;;;;5031075;28;20635;-80
2023/07/05 08:01:25;;;;;;;6.88;6.28;;;;;;;;;;5030997;28;20222;-80
2023/07/05 08:03:51;;;;;;;8.98;7.43;;;;;;;;;;5030967;28;20221;-80
2023/07/05 08:06:18;;;;;;;7.72;6.72;;;;;;;;;;5030919;28;20209;-80
2023/07/05 08:08:45;;;;;;;8.38;7.57;;;;;;;;;;5030920;28;20202;-80
2023/07/05 08:11:12;;;;;;;8.90;7.07;;;;;;;;;;5030693;28;20685;-80
2023/07/05 08:13:40;;;;;;;8.48;7.72;;;;;;;;;;5030705;28;20632;-80
2023/07/05 08:16:07;;;;;;;9.02;8.32;;;;;;;;;;5031190;28;20241;-80
2023/07/05 08:18:35;;;;;;;10.93;8.00;;;;;;;;;;5030748;28;20704;-80
2023/07/05 08:21:03;;;;;;;8.50;7.47;;;;;;;;;;5030610;28;20209;-81
2023/07/05 08:23:30;;;;;;;7.85;7.18;;;;;;;;;;5030813;28;20280;-80
2023/07/05 08:25:57;;;;;;;9.05;8.10;;;;;;;;;;5030855;28;20202;-81
2023/07/05 08:28:24;;;;;;;8.95;7.60;;;;;;;;;;5030668;28;20202;-81
2023/07/05 08:30:55;;;;;;;8.90;7.57;;;;;;;;;;5030706;28;20217;-81
2023/07/05 08:33:22;;;;;;;8.65;7.78;;;;;;;;;;5030749;28;20238;-80
2023/07/05 08:36:02;;;;;;;9.13;8.05;;;;;;;;;;5030984;28;20199;-80
2023/07/05 08:38:29;;;;;;;8.40;7.65;;;;;;;;;;5030635;28;20203;-81
2023/07/05 08:40:59;;;;;;;8.02;7.32;;;;;;;;;;5030997;28;20226;-81
2023/07/05 08:43:30;;;;;;;8.88;8.05;;;;;;;;;;5030808;28;20638;-81
2023/07/05 08:46:02;;;;;;;8.95;6.63;;;;;;;;;;5030797;28;20309;-81
2023/07/05 08:48:30;;;;;;;8.85;7.32;;;;;;;;;;5030455;28;20202;-81
2023/07/05 08:50:58;;;;;;;8.95;8.15;;;;;;;;;;5030628;28;20210;-80
2023/07/05 08:53:26;;;;;;;8.70;7.90;;;;;;;;;;5030360;28;20210;-81
2023/07/05 08:55:57;;;;;;;9.90;8.15;;;;;;;;;;5030512;28;20207;-81
2023/07/05 08:58:26;;;;;;;8.98;8.18;;;;;;;;;;5030503;28;20209;-80
2023/07/05 09:00:58;;;;;;;9.75;8.75;;;;;;;;;;5030249;28;20206;-80
2023/07/05 09:03:28;;;;;;;9.35;8.55;;;;;;;;;;5030259;28;20673;-79
2023/07/05 09:06:10;;;;;;;9.13;8.32;;;;;;;;;;5030340;28;20214;-81
2023/07/05 09:08:48;;;;;;;8.57;7.72;;;;;;;;;;5030406;28;20589;-80
2023/07/05 09:11:21;;;;;;;9.35;8.55;;;;;;;;;;5030723;28;20195;-80
2023/07/05 09:13:48;;;;;;;8.77;7.88;;;;;;;;;;5030529;28;20215;-81
2023/07/05 09:16:20;;;;;;;8.77;7.97;;;;;;;;;;5030341;28;20226;-80
2023/07/05 09:18:57;;;;;;;8.88;8.07;;;;;;;;;;5033585;28;20213;-81
2023/07/05 09:21:32;;;;;;;9.98;8.57;;;;;;;;;;5033967;28;20230;-80
2023/07/05 09:24:04;;;;;;;10.38;8.18;;;;;;;;;;5034325;28;20199;-81
2023/07/05 09:26:35;;;;;;;9.48;8.55;;;;;;;;;;5034550;28;20583;-81
2023/07/05 09:29:14;;;;;;;9.68;8.75;;;;;;;;;;5033636;28;20269;-81
2023/07/05 09:31:43;;;;;;;9.15;8.35;;;;;;;;;;5034236;28;20207;-81
2023/07/05 09:34:19;;;;;;;10.70;9.35;;;;;;;;;;5033775;28;20202;-81
2023/07/05 09:36:48;;;;;;;9.73;8.30;;;;;;;;;;5033536;28;20717;-81
2023/07/05 09:39:27;;;;;;;12.20;8.18;;;;;;;;;;5033824;28;20300;-81
2023/07/05 09:41:55;;;;;;;9.13;8.23;;;;;;;;;;5033362;28;20739;-80
2023/07/05 09:44:22;;;;;;;8.75;8.05;;;;;;;;;;5033660;28;20623;-81
2023/07/05 09:46:48;;;;;;;8.60;7.93;;;;;;;;;;5033163;28;20202;-81
2023/07/05 09:49:16;;;;;;;11.82;7.95;;;;;;;;;;5033576;28;20206;-81
2023/07/05 09:51:44;;;;;;;9.27;8.20;;;;;;;;;;5033456;28;20682;-81
2023/07/05 09:54:19;;;;;;;9.32;8.45;;;;;;;;;;5033351;28;20203;-80
2023/07/05 09:56:57;;;;;;;11.63;8.25;;;;;;;;;;5033233;28;20248;-80
2023/07/05 09:59:25;;;;;;;8.27;7.47;;;;;;;;;;5032960;28;20635;-79
2023/07/05 10:01:57;;;;;;;8.68;7.95;;;;;;;;;;5033240;28;20230;-81
2023/07/05 10:04:28;;;;;;;9.13;8.07;;;;;;;;;;5033229;28;20198;-81
2023/07/05 10:07:02;;;;;;;7.88;7.18;;;;;;;;;;5032741;28;20198;-81
2023/07/05 10:09:30;;;;;;;8.70;7.90;;;;;;;;;;5033307;28;20205;-81
2023/07/05 10:11:57;;;;;;;7.43;6.72;;;;;;;;;;5033392;28;20265;-81
2023/07/05 10:14:27;;;;;;;8.65;7.72;;;;;;;;;;5033227;28;20203;-81
2023/07/05 10:16:56;;;;;;;8.27;7.38;;;;;;;;;;5032751;28;20312;-80
2023/07/05 10:19:25;;;;;;;7.97;7.05;;;;;;;;;;5032799;28;20209;-81
2023/07/05 10:21:54;;;;;;;8.50;7.65;;;;;;;;;;5033105;28;20313;-81
2023/07/05 10:24:21;;;;;;;8.32;7.53;;;;;;;;;;5032645;28;20655;-81
2023/07/05 10:27:03;;;;;;;7.47;6.88;;;;;;;;;;5032459;28;20210;-81
2023/07/05 10:29:30;;;;;;;7.72;7.05;;;;;;;;;;5032995;28;20206;-82
2023/07/05 10:32:00;;;;;;;7.90;7.15;;;;;;;;;;5032703;28;20294;-81
2023/07/05 10:34:27;;;;;;;8.80;6.88;;;;;;;;;;5032919;28;20238;-81
2023/07/05 10:36:54;;;;;;;8.45;7.03;;;;;;;;;;5032224;28;20724;-80
2023/07/05 10:39:26;;;;;;;7.60;7.00;;;;;;;;;;5032817;28;20202;-81
2023/07/05 10:41:57;;;;;;;7.45;6.85;;;;;;;;;;5032350;28;20313;-81
2023/07/05 10:44:30;;;;;;;7.18;6.47;;;;;;;;;;5032350;28;20206;-81
2023/07/05 10:46:58;;;;;;;7.57;6.82;;;;;;;;;;5032227;28;20203;-81
2023/07/05 10:49:25;;;;;;;10.70;6.95;;;;;;;;;;5032838;28;20218;-81
2023/07/05 10:51:57;;;;;;;8.60;6.63;;;;;;;;;;5032153;28;20218;-81
2023/07/05 10:54:32;;;;;;;8.65;7.10;;;;;;;;;;5032368;28;20209;-82
2023/07/05 10:57:02;;;;;;;11.13;7.13;;;;;;;;;;5020663;28;20206;-82
2023/07/05 10:59:33;;;;;;;9.52;7.15;;;;;;;;;;5032362;28;20218;-81
2023/07/05 11:02:04;;;;;;;7.60;6.93;;;;;;;;;;5031941;28;20222;-81
2023/07/05 11:04:33;;;;;;;6.68;6.07;;;;;;;;;;5032205;28;20683;-82
2023/07/05 11:07:06;;;;;;;8.13;7.32;;;;;;;;;;5032308;28;20261;-82
2023/07/05 11:09:35;;;;;;;7.93;7.28;;;;;;;;;;5032005;28;20202;-81
2023/07/05 11:12:09;;;;;;;7.35;6.60;;;;;;;;;;5032218;28;20293;-81
2023/07/05 11:14:37;;;;;;;7.57;6.88;;;;;;;;;;5031477;28;20202;-81
2023/07/05 11:17:05;;;;;;;8.48;6.72;;;;;;;;;;5031885;28;20234;-81
2023/07/05 11:19:32;;;;;;;8.15;7.30;;;;;;;;;;5032091;28;20621;-81
2023/07/05 11:22:00;;;;;;;7.53;6.75;;;;;;;;;;5031444;28;20582;-81
2023/07/05 11:24:43;;;;;;;7.15;6.45;;;;;;;;;;5031859;28;20203;-81
2023/07/05 11:27:50;;;;;;;7.78;6.78;;;;;;;;;;5031615;28;20276;-81
2023/07/05 11:30:55;;;;;;;9.23;6.97;;;;;;;;;;5031545;28;20696;-81
2023/07/05 11:33:22;;;;;;;10.18;7.32;;;;;;;;;;5031498;28;20284;-81
2023/07/05 11:35:52;;;;;;;7.38;6.68;;;;;;;;;;5018657;28;20214;-82
2023/07/05 11:38:55;;;;;;;7.32;6.63;;;;;;;;;;5031360;28;20645;-81
2023/07/05 11:41:29;;;;;;;7.50;6.75;;;;;;;;;;4989469;28;20206;-82
2023/07/05 11:44:00;;;;;;;8.07;6.45;;;;;;;;;;4989773;28;20231;-81
2023/07/05 11:46:39;;;;;;;6.97;6.30;;;;;;;;;;5002944;28;20215;-81
2023/07/05 11:49:36;;;;;;;7.10;6.50;;;;;;;;;;5031578;28;20210;-81
2023/07/05 11:52:07;;;;;;;7.03;6.45;;;;;;;;;;5010674;28;20210;-81
2023/07/05 11:54:43;;;;;;;7.15;6.45;;;;;;;;;;5031088;28;20210;-81
2023/07/05 11:57:12;;;;;;;6.72;6.13;;;;;;;;;;5030882;28;20194;-82
2023/07/05 11:59:47;;;;;;;6.38;5.75;;;;;;;;;;5031333;28;20199;-82
2023/07/05 12:02:31;;;;;;;6.47;5.88;;;;;;;;;;5031090;28;20202;-82
2023/07/05 12:05:00;;;;;;;6.57;6.00;;;;;;;;;;5018673;28;20230;-82
2023/07/05 12:07:29;;;;;;;6.40;5.72;;;;;;;;;;5030437;28;20214;-81
2023/07/05 12:09:57;;;;;;;6.63;6.13;;;;;;;;;;5031012;28;20607;-81
2023/07/05 12:12:24;;;;;;;7.25;6.65;;;;;;;;;;5030788;28;20210;-82
2023/07/05 12:14:52;;;;;;;6.97;6.45;;;;;;;;;;5030879;28;20209;-82
2023/07/05 12:17:24;;;;;;;8.90;6.78;;;;;;;;;;5030633;28;20210;-82
2023/07/05 12:19:51;;;;;;;7.32;6.72;;;;;;;;;;5031135;28;20194;-82
2023/07/05 12:22:19;;;;;;;7.32;6.57;;;;;;;;;;5030576;28;20214;-82
2023/07/05 12:24:49;;;;;;;6.25;5.78;;;;;;;;;;5031124;28;20210;-82
2023/07/05 12:27:21;;;;;;;6.75;6.00;;;;;;;;;;5030159;28;20205;-82
2023/07/05 12:29:52;;;;;;;7.50;6.75;;;;;;;;;;5031175;28;20234;-82
2023/07/05 12:32:20;;;;;;;7.38;5.93;;;;;;;;;;5030821;28;20195;-82
2023/07/05 12:34:47;;;;;;;6.85;6.30;;;;;;;;;;5030664;28;20210;-82
2023/07/05 12:37:31;;;;;;;6.88;6.28;;;;;;;;;;5030332;28;20719;-82
2023/07/05 12:40:12;;;;;;;7.32;6.78;;;;;;;;;;5030342;28;20206;-82
2023/07/05 12:42:48;;;;;;;7.85;7.25;;;;;;;;;;5030569;28;20230;-81
2023/07/05 12:45:18;;;;;;;7.47;6.88;;;;;;;;;;5030839;28;20393;-81
2023/07/05 12:47:46;;;;;;;6.82;6.22;;;;;;;;;;5030860;28;20210;-81
2023/07/05 12:50:15;;;;;;;6.53;5.95;;;;;;;;;;5030509;28;20205;-81
2023/07/05 12:52:42;;;;;;;6.10;5.60;;;;;;;;;;5032764;28;20588;-81
2023/07/05 12:55:25;;;;;;;8.77;6.22;;;;;;;;;;5034484;28;20194;-81
2023/07/05 12:57:54;;;;;;;7.32;6.57;;;;;;;;;;5034397;28;20204;-81
2023/07/05 13:00:22;;;;;;;7.07;6.38;;;;;;;;;;5034490;28;20584;-81
2023/07/05 13:02:50;;;;;;;6.90;6.30;;;;;;;;;;5033983;28;20735;-81
2023/07/05 13:05:17;;;;;;;11.18;6.35;;;;;;;;;;5034338;28;20289;-81
2023/07/05 13:07:46;;;;;;;7.05;6.35;;;;;;;;;;5034301;28;20194;-82
2023/07/05 13:10:13;;;;;;;6.43;5.78;;;;;;;;;;5034432;28;20202;-81
2023/07/05 13:12:53;;;;;;;6.28;5.68;;;;;;;;;;5034053;28;20704;-81
2023/07/05 13:15:21;;;;;;;6.50;5.78;;;;;;;;;;5034300;28;20237;-81
2023/07/05 13:17:48;;;;;;;6.35;5.78;;;;;;;;;;5033671;28;20203;-81
2023/07/05 13:20:19;;;;;;;7.63;5.97;;;;;;;;;;5034139;28;20206;-81
2023/07/05 13:22:50;;;;;;;7.10;6.45;;;;;;;;;;5033941;28;20254;-82
2023/07/05 13:25:31;;;;;;;7.78;7.07;;;;;;;;;;5033684;28;20195;-81
2023/07/05 13:27:59;;;;;;;7.28;6.68;;;;;;;;;;5033947;28;20566;-82
2023/07/05 13:30:29;;;;;;;7.60;7.00;;;;;;;;;;5034155;28;20214;-81
2023/07/05 13:32:57;;;;;;;7.78;7.00;;;;;;;;;;5033752;28;20214;-81
2023/07/05 13:35:26;;;;;;;6.75;6.15;;;;;;;;;;5033876;28;20203;-81
2023/07/05 13:37:53;;;;;;;7.30;6.60;;;;;;;;;;5034051;28;20203;-82
2023/07/05 13:40:22;;;;;;;7.78;6.85;;;;;;;;;;5033280;28;20210;-83
2023/07/05 13:42:48;;;;;;;7.40;6.38;;;;;;;;;;5033647;28;20225;-83
2023/07/05 13:45:17;;;;;;;6.60;5.88;;;;;;;;;;5033612;28;20202;-83
2023/07/05 13:47:46;;;;;;;5.57;5.18;;;;;;;;;;5033349;28;20214;-84
2023/07/05 13:50:13;;;;;;;7.80;5.18;;;;;;;;;;5033468;28;20762;-83
2023/07/05 13:52:41;;;;;;;5.60;5.10;;;;;;;;;;5033288;28;20260;-83
2023/07/05 13:55:15;;;;;;;5.82;5.28;;;;;;;;;;5033463;28;20210;-83
2023/07/05 13:57:52;;;;;;;5.75;5.28;;;;;;;;;;5033336;28;20206;-83
2023/07/05 14:00:19;;;;;;;5.70;5.20;;;;;;;;;;5022016;28;20202;-83
2023/07/05 14:02:49;;;;;;;5.28;4.88;;;;;;;;;;5032857;28;20226;-83
2023/07/05 14:05:17;;;;;;;5.72;4.97;;;;;;;;;;5033444;28;20594;-83
2023/07/05 14:07:44;;;;;;;6.00;5.50;;;;;;;;;;5032595;28;20211;-83
2023/07/05 14:10:13;;;;;;;5.07;4.57;;;;;;;;;;5033578;28;20206;-83
2023/07/05 14:12:40;;;;;;;5.43;5.03;;;;;;;;;;5032973;28;20285;-83
2023/07/05 14:15:20;;;;;;;6.50;5.25;;;;;;;;;;5033346;28;20230;-83
2023/07/05 14:17:48;;;;;;;5.35;4.93;;;;;;;;;;5032850;28;20203;-84
2023/07/05 14:20:15;;;;;;;5.63;5.15;;;;;;;;;;5033379;28;20210;-83
2023/07/05 14:22:42;;;;;;;5.68;5.10;;;;;;;;;;5032974;28;20217;-84
2023/07/05 14:25:14;;;;;;;5.07;4.72;;;;;;;;;;5033475;28;20233;-83
2023/07/05 14:27:41;;;;;;;6.07;5.47;;;;;;;;;;5032515;28;20727;-83
2023/07/05 14:30:10;;;;;;;7.07;5.22;;;;;;;;;;5033095;28;20597;-83
2023/07/05 14:32:37;;;;;;;5.90;5.40;;;;;;;;;;5032828;28;20689;-83
2023/07/05 14:35:13;;;;;;;6.90;5.60;;;;;;;;;;5032924;28;20268;-83
2023/07/05 14:37:40;;;;;;;6.55;5.95;;;;;;;;;;5032744;28;20253;-83
2023/07/05 14:40:08;;;;;;;6.28;5.68;;;;;;;;;;5032663;28;20211;-83
2023/07/05 14:42:35;;;;;;;6.30;5.70;;;;;;;;;;5032610;28;20203;-83
2023/07/05 14:45:02;;;;;;;6.47;5.88;;;;;;;;;;5032284;28;20226;-83
2023/07/05 14:47:29;;;;;;;6.57;5.97;;;;;;;;;;5032615;28;20206;-83
2023/07/05 14:49:55;;;;;;;5.47;4.97;;;;;;;;;;5032422;28;20599;-83
2023/07/05 14:52:26;;;;;;;5.95;5.50;;;;;;;;;;5032884;28;20242;-83
2023/07/05 14:54:53;;;;;;;6.20;5.60;;;;;;;;;;5027773;28;20210;-83